createdAt,value
2018-05-14T10:39:07.195Z,24.80
2018-05-14T10:41:39.842Z,25.20
2018-05-14T10:44:12.503Z,24.80
2018-05-14T10:46:44.661Z,24.80
2018-05-14T10:49:16.471Z,24.40
2018-05-14T10:51:49.146Z,24.80
2018-05-14T10:54:21.818Z,25.10
2018-05-14T10:56:53.730Z,25.10
2018-05-14T10:59:25.616Z,25.50
2018-05-14T11:01:57.529Z,25.90
2018-05-14T11:04:30.427Z,25.60
2018-05-14T11:07:02.321Z,25.50
2018-05-14T11:09:34.456Z,25.00
2018-05-14T11:12:06.610Z,24.60
2018-05-14T11:14:38.506Z,23.70
2018-05-14T11:17:10.402Z,23.30
2018-05-14T11:19:42.597Z,23.10
2018-05-14T11:22:14.505Z,22.90
2018-05-14T11:24:46.402Z,22.80
2018-05-14T11:27:19.932Z,22.80
2018-05-14T11:29:52.085Z,22.80
2018-05-14T11:32:23.976Z,22.80
2018-05-14T11:34:56.112Z,22.80
2018-05-14T11:37:28.011Z,22.70
2018-05-14T11:39:59.891Z,22.70
2018-05-14T11:42:31.777Z,22.90
2018-05-14T11:45:04.422Z,23.00
2018-05-14T11:47:36.321Z,23.00
2018-05-14T11:50:08.958Z,22.90
2018-05-14T11:52:40.861Z,22.90
2018-05-14T11:55:13.755Z,22.90
2018-05-14T11:57:45.656Z,22.80
2018-05-14T12:00:17.547Z,22.90
2018-05-14T12:02:49.491Z,22.90
2018-05-14T12:05:21.332Z,23.00
2018-05-14T12:07:53.227Z,23.00
2018-05-14T12:10:25.098Z,23.20
2018-05-14T12:12:57.816Z,23.30
2018-05-14T12:15:29.968Z,23.30
2018-05-14T12:18:01.935Z,23.40
2018-05-14T12:20:34.090Z,23.40
2018-05-14T12:23:05.988Z,23.40
2018-05-14T12:25:37.926Z,23.40
2018-05-14T12:28:09.757Z,23.40
2018-05-14T12:30:41.647Z,23.30
2018-05-14T12:33:13.539Z,23.40
2018-05-14T12:35:45.418Z,23.50
2018-05-14T12:38:17.318Z,23.60
2018-05-14T12:40:49.299Z,23.70
2018-05-14T12:43:21.216Z,23.60
2018-05-14T12:45:54.119Z,23.70
2018-05-14T12:48:26.055Z,23.70
2018-05-14T12:50:57.938Z,23.80
2018-05-14T12:53:29.832Z,24.00
2018-05-14T12:56:02.075Z,24.10
2018-05-14T12:58:33.981Z,24.30
2018-05-14T13:01:05.871Z,24.60
2018-05-14T13:03:38.530Z,24.60
2018-05-14T13:06:10.410Z,24.60
2018-05-14T13:08:43.073Z,24.50
2018-05-14T13:11:14.966Z,24.50
2018-05-14T13:13:46.863Z,24.50
2018-05-14T13:16:19.000Z,24.40
2018-05-14T13:18:51.162Z,24.40
2018-05-14T13:21:23.062Z,24.30
2018-05-14T13:23:55.727Z,24.00
2018-05-14T13:26:27.608Z,24.00
2018-05-14T13:28:59.498Z,24.00
2018-05-14T13:31:32.147Z,24.10
2018-05-14T13:34:04.038Z,24.10
2018-05-14T13:36:36.689Z,24.20
2018-05-14T13:39:08.579Z,24.20
2018-05-14T13:41:41.215Z,24.40
2018-05-14T13:44:13.205Z,24.40
2018-05-14T13:46:45.774Z,24.50
2018-05-14T13:49:17.666Z,24.50
2018-05-14T13:51:50.312Z,24.60
2018-05-14T13:54:22.217Z,24.50
2018-05-14T13:56:54.138Z,24.50
2018-05-14T13:59:26.036Z,24.50
2018-05-14T14:01:58.205Z,24.60
2018-05-14T14:04:30.102Z,24.60
2018-05-14T14:07:01.972Z,24.70
2018-05-14T14:09:33.872Z,24.70
2018-05-14T14:12:06.513Z,24.80
2018-05-14T14:14:38.421Z,24.80
2018-05-14T14:17:11.060Z,24.90
2018-05-14T14:19:42.959Z,24.90
2018-05-14T14:22:14.870Z,24.90
2018-05-14T14:24:46.774Z,24.80
2018-05-14T14:27:18.662Z,24.90
2018-05-14T14:29:50.678Z,24.90
2018-05-14T14:32:22.467Z,25.00
2018-05-14T14:34:54.407Z,25.00
2018-05-14T14:37:27.086Z,25.10
2018-05-14T14:39:59.739Z,25.20
2018-05-14T14:42:31.654Z,25.20
2018-05-14T14:45:03.550Z,25.20
2018-05-14T14:47:35.433Z,25.20
2018-05-14T14:50:07.335Z,25.20
2018-05-14T14:52:39.482Z,25.20
2018-05-14T14:55:12.214Z,25.30
2018-05-14T14:57:44.239Z,25.30
2018-05-14T15:00:16.134Z,25.30
2018-05-14T15:02:48.018Z,25.40
2018-05-14T15:05:19.912Z,25.30
2018-05-14T15:07:51.789Z,25.20
2018-05-14T15:10:23.679Z,25.30
2018-05-14T15:12:55.556Z,25.30
2018-05-14T15:15:27.443Z,25.30
2018-05-14T15:18:00.090Z,25.40
2018-05-14T15:20:32.210Z,25.30
2018-05-14T15:23:04.094Z,25.40
2018-05-14T15:25:36.746Z,25.40
2018-05-14T15:28:08.899Z,25.40
2018-05-14T15:30:40.791Z,25.40
2018-05-14T15:33:12.744Z,25.40
2018-05-14T15:35:44.886Z,25.40
2018-05-14T15:38:16.767Z,25.50
2018-05-14T15:40:48.663Z,25.50
2018-05-14T15:43:20.889Z,25.60
2018-05-14T15:45:53.943Z,25.70
2018-05-14T15:48:26.578Z,25.70
2018-05-14T15:50:58.710Z,25.70
2018-05-14T15:53:30.602Z,25.70
2018-05-14T15:56:02.486Z,25.80
2018-05-14T15:58:34.365Z,25.80
2018-05-14T16:01:06.254Z,25.80
2018-05-14T16:03:38.134Z,25.90
2018-05-14T16:06:10.032Z,26.00
2018-05-14T16:08:41.910Z,26.20
2018-05-14T16:11:14.565Z,26.30
2018-05-14T16:13:46.449Z,26.30
2018-05-14T16:16:19.357Z,26.30
2018-05-14T16:18:51.328Z,26.20
2018-05-14T16:21:23.226Z,26.20
2018-05-14T16:23:55.110Z,26.10
2018-05-14T16:26:26.999Z,26.10
2018-05-14T16:28:58.871Z,26.00
2018-05-14T16:31:30.758Z,26.00
2018-05-14T16:34:02.651Z,25.90
2018-05-14T16:36:34.839Z,25.90
2018-05-14T16:39:06.718Z,25.80
2018-05-14T16:41:38.614Z,25.70
2018-05-14T16:44:10.494Z,25.70
2018-05-14T16:46:42.381Z,25.60
2018-05-14T16:49:14.269Z,25.60
2018-05-14T16:51:46.174Z,25.50
2018-05-14T16:54:18.046Z,25.40
2018-05-14T16:56:51.050Z,25.30
2018-05-14T16:59:22.938Z,25.30
2018-05-14T17:01:54.830Z,25.30
2018-05-14T17:04:26.711Z,25.20
2018-05-14T17:06:58.603Z,25.30
2018-05-14T17:09:31.382Z,25.20
2018-05-14T17:12:03.270Z,25.20
2018-05-14T17:14:35.151Z,25.20
2018-05-14T17:17:07.048Z,25.20
2018-05-14T17:19:39.698Z,25.20
2018-05-14T17:22:11.901Z,25.20
2018-05-14T17:24:43.798Z,25.10
2018-05-14T17:27:16.742Z,25.10
2018-05-14T17:29:48.915Z,25.00
2018-05-14T17:32:20.798Z,25.00
2018-05-14T17:34:52.715Z,25.00
2018-05-14T17:37:25.373Z,24.90
2018-05-14T17:39:57.258Z,24.90
2018-05-14T17:42:29.911Z,24.90
2018-05-14T17:45:01.816Z,24.90
2018-05-14T17:47:33.698Z,24.90
2018-05-14T17:50:05.837Z,25.00
2018-05-14T17:52:38.531Z,25.00
2018-05-14T17:55:10.414Z,25.00
2018-05-14T17:57:42.306Z,25.00
2018-05-14T18:00:14.202Z,25.00
2018-05-14T18:02:46.887Z,24.90
2018-05-14T18:05:18.884Z,24.90
2018-05-14T18:07:52.223Z,24.80
2018-05-14T18:10:24.912Z,24.80
2018-05-14T18:12:56.774Z,24.70
2018-05-14T18:15:28.661Z,24.70
2018-05-14T18:18:00.626Z,24.70
2018-05-14T18:20:32.435Z,24.60
2018-05-14T18:23:05.099Z,24.50
2018-05-14T18:25:37.224Z,24.50
2018-05-14T18:28:09.362Z,24.40
2018-05-14T18:30:41.258Z,24.40
2018-05-14T18:33:13.158Z,24.30
2018-05-14T18:35:45.176Z,24.30
2018-05-14T18:38:17.099Z,24.30
2018-05-14T18:40:49.764Z,24.20
2018-05-14T18:43:21.669Z,24.10
2018-05-14T18:45:53.819Z,24.10
2018-05-14T18:48:25.719Z,24.00
2018-05-14T18:50:57.627Z,24.00
2018-05-14T18:53:30.311Z,23.90
2018-05-14T18:56:02.954Z,23.80
2018-05-14T18:58:34.854Z,23.80
2018-05-14T19:01:06.730Z,23.80
2018-05-14T19:03:38.615Z,23.80
2018-05-14T19:06:10.503Z,23.70
2018-05-14T19:08:42.392Z,23.60
2018-05-14T19:11:14.262Z,23.60
2018-05-14T19:13:46.267Z,23.50
2018-05-14T19:16:18.166Z,23.50
2018-05-14T19:18:50.884Z,23.30
2018-05-14T19:21:22.855Z,23.30
2018-05-14T19:23:54.765Z,23.30
2018-05-14T19:26:27.537Z,23.20
2018-05-14T19:28:59.501Z,23.20
2018-05-14T19:31:31.383Z,23.20
2018-05-14T19:34:03.277Z,23.10
2018-05-14T19:36:35.178Z,23.10
2018-05-14T19:39:07.374Z,23.00
2018-05-14T19:41:39.333Z,23.00
2018-05-14T19:44:11.171Z,22.90
2018-05-14T19:46:43.046Z,22.90
2018-05-14T19:49:15.718Z,22.70
2018-05-14T19:51:48.390Z,22.60
2018-05-14T19:54:20.279Z,22.60
2018-05-14T19:56:52.158Z,22.50
2018-05-14T19:59:24.305Z,22.50
2018-05-14T20:01:56.182Z,22.50
2018-05-14T20:04:28.075Z,22.40
2018-05-14T20:07:00.182Z,22.30
2018-05-14T20:09:32.070Z,22.20
2018-05-14T20:12:04.218Z,22.20
2018-05-14T20:14:36.109Z,22.10
2018-05-14T20:17:07.970Z,22.00
2018-05-14T20:19:39.913Z,21.90
2018-05-14T20:22:12.062Z,21.80
2018-05-14T20:24:43.954Z,21.70
2018-05-14T20:27:15.843Z,21.70
2018-05-14T20:29:47.739Z,21.60
2018-05-14T20:32:19.621Z,21.60
2018-05-14T20:34:51.507Z,21.50
2018-05-14T20:37:25.166Z,21.40
2018-05-14T20:39:56.982Z,21.40
